Time;durP1;ratioP1;P1;durP2;ratioP2;P2;SDS_P1;SDS_P2;PMS_P1;PMS_P2;Temp;Humidity;BMP_temperature;BMP_pressure;BME280_temperature;BME280_humidity;BME280_pressure;Samples;Min_cycle;Max_cycle;Signal;HPM_P1;HPM_P2
2023/01/22 00:02:00;;;;;;;11.13;10.03;;;3.20;43.00;;;;;;10492244;28;20708;-76
2023/01/22 00:07:04;;;;;;;10.10;9.10;;;3.20;43.10;;;;;;10490280;28;20951;-76
2023/01/22 00:12:07;;;;;;;10.07;9.07;;;3.20;43.10;;;;;;10484891;28;20228;-76
2023/01/22 00:17:13;;;;;;;10.30;9.30;;;3.20;43.10;;;;;;10487599;28;20232;-76
2023/01/22 00:22:16;;;;;;;9.83;8.83;;;3.20;43.20;;;;;;10485693;28;20262;-77
2023/01/22 00:27:19;;;;;;;10.93;9.73;;;3.30;43.00;;;;;;10488826;28;20857;-76
2023/01/22 00:32:24;;;;;;;9.20;8.30;;;3.30;43.10;;;;;;10490974;28;20246;-77
2023/01/22 00:37:27;;;;;;;9.33;8.40;;;3.40;43.20;;;;;;10484110;28;20243;-76
2023/01/22 00:42:30;;;;;;;8.20;7.40;;;3.40;43.10;;;;;;10489788;28;20764;-76
2023/01/22 00:47:35;;;;;;;10.10;8.57;;;3.60;43.10;;;;;;10489564;28;20236;-76
2023/01/22 00:52:38;;;;;;;6.73;6.03;;;3.60;43.10;;;;;;10484999;28;20259;-76
2023/01/22 00:57:41;;;;;;;9.70;8.70;;;3.60;43.00;;;;;;10489128;28;20232;-76
2023/01/22 01:08:12;;;;;;;10.20;8.80;;;3.70;43.00;;;;;;10461351;28;20224;-76
2023/01/22 01:13:15;;;;;;;11.33;8.90;;;3.80;42.90;;;;;;10487546;28;20228;-76
2023/01/22 01:18:20;;;;;;;11.30;9.67;;;3.80;42.80;;;;;;10484193;28;20227;-76
2023/01/22 01:23:23;;;;;;;9.93;8.50;;;3.90;42.90;;;;;;10483584;28;20286;-77
2023/01/22 01:28:28;;;;;;;9.47;8.33;;;3.90;42.90;;;;;;10484566;28;20228;-77
2023/01/22 01:33:33;;;;;;;8.27;7.47;;;3.90;42.80;;;;;;10485760;28;20246;-76
2023/01/22 01:38:36;;;;;;;9.13;8.23;;;4.10;43.00;;;;;;10485185;28;20697;-76
2023/01/22 01:43:39;;;;;;;8.87;8.07;;;4.10;42.80;;;;;;10487821;28;20240;-76
2023/01/22 01:48:46;;;;;;;7.70;7.00;;;4.10;42.70;;;;;;10486628;28;20950;-76
2023/01/22 01:53:50;;;;;;;8.40;7.60;;;4.10;42.60;;;;;;10485886;28;20286;-77
2023/01/22 01:58:57;;;;;;;8.70;7.87;;;4.10;42.30;;;;;;10485720;28;20711;-76
2023/01/22 02:04:02;;;;;;;8.37;7.53;;;4.10;42.00;;;;;;10484570;28;20335;-77
2023/01/22 02:09:05;;;;;;;8.87;8.03;;;4.00;42.00;;;;;;10480346;28;20239;-76
2023/01/22 02:14:11;;;;;;;8.30;7.23;;;3.90;42.00;;;;;;10486896;28;20676;-76
2023/01/22 02:19:16;;;;;;;8.57;7.73;;;3.80;42.20;;;;;;10486036;28;20224;-76
2023/01/22 02:24:21;;;;;;;8.70;7.83;;;3.80;42.50;;;;;;10485326;28;20254;-77
2023/01/22 02:29:27;;;;;;;7.80;7.10;;;3.70;42.50;;;;;;10486396;28;20243;-76
2023/01/22 02:34:31;;;;;;;7.27;6.57;;;3.70;42.60;;;;;;10486174;28;20236;-76
2023/01/22 02:39:35;;;;;;;7.47;6.70;;;3.70;42.70;;;;;;10486653;28;20636;-76
2023/01/22 02:44:38;;;;;;;7.23;6.53;;;3.80;42.90;;;;;;10486281;28;20712;-76
2023/01/22 02:49:41;;;;;;;7.80;7.00;;;3.80;42.70;;;;;;10484484;28;20243;-76
2023/01/22 02:54:46;;;;;;;7.03;6.33;;;3.90;42.80;;;;;;10485306;28;20244;-76
2023/01/22 02:59:49;;;;;;;6.07;5.47;;;3.90;42.70;;;;;;10486392;28;20232;-76
2023/01/22 03:05:02;;;;;;;7.13;6.43;;;4.00;42.70;;;;;;10486729;28;20310;-76
2023/01/22 03:10:09;;;;;;;6.97;6.27;;;4.00;42.70;;;;;;10479790;28;20765;-75
2023/01/22 03:25:58;;;;;;;7.20;6.47;;;4.20;42.90;;;;;;10491619;28;20247;-76
2023/01/22 03:31:01;;;;;;;6.77;6.17;;;4.10;42.70;;;;;;10491892;28;20236;-76
2023/01/22 03:36:07;;;;;;;7.10;6.40;;;4.10;42.50;;;;;;10484836;28;20244;-76
2023/01/22 03:41:14;;;;;;;6.20;5.60;;;4.10;42.50;;;;;;10487184;28;20635;-76
2023/01/22 03:46:18;;;;;;;6.40;5.80;;;4.20;42.70;;;;;;10492475;28;20274;-76
2023/01/22 03:51:23;;;;;;;6.93;6.23;;;4.20;42.60;;;;;;10491795;28;20263;-76
2023/01/22 03:56:28;;;;;;;7.27;6.57;;;4.20;42.60;;;;;;10492260;28;20244;-76
2023/01/22 04:01:31;;;;;;;7.10;6.40;;;4.20;42.60;;;;;;10491477;28;20232;-76
2023/01/22 04:06:34;;;;;;;6.37;5.77;;;4.20;42.50;;;;;;10486933;28;20232;-76
2023/01/22 04:11:39;;;;;;;7.13;6.43;;;4.30;42.50;;;;;;10490898;28;20227;-76
2023/01/22 04:16:42;;;;;;;6.73;5.93;;;4.30;42.50;;;;;;10490865;28;20720;-76
2023/01/22 04:21:46;;;;;;;4.67;4.27;;;4.30;42.30;;;;;;10488893;28;20236;-76
2023/01/22 04:26:52;;;;;;;6.37;5.77;;;4.30;42.40;;;;;;10491057;28;20237;-76
2023/01/22 04:31:56;;;;;;;5.60;5.10;;;4.30;42.40;;;;;;10485840;28;20958;-76
2023/01/22 04:36:59;;;;;;;6.57;5.97;;;4.30;42.40;;;;;;10489312;28;20236;-76
2023/01/22 04:42:04;;;;;;;5.43;4.97;;;4.30;42.40;;;;;;10488273;28;20716;-76
2023/01/22 04:47:07;;;;;;;6.77;6.17;;;4.30;42.30;;;;;;10496039;28;20353;-75
2023/01/22 04:52:10;;;;;;;6.60;6.00;;;4.30;42.20;;;;;;10502720;28;20264;-75
2023/01/22 04:57:15;;;;;;;7.97;7.27;;;4.40;42.20;;;;;;10502383;28;20224;-75
2023/01/22 05:02:18;;;;;;;7.13;6.43;;;4.30;42.20;;;;;;10501776;28;20271;-75
2023/01/22 05:07:21;;;;;;;9.83;8.93;;;4.30;42.20;;;;;;10503327;28;20238;-75
2023/01/22 05:12:26;;;;;;;7.67;6.87;;;4.30;42.90;;;;;;10504085;28;20266;-75
2023/01/22 05:17:29;;;;;;;7.37;6.37;;;4.30;42.20;;;;;;10503368;28;20228;-75
2023/01/22 05:22:32;;;;;;;6.17;5.57;;;4.30;42.20;;;;;;10501911;28;20232;-75
2023/01/22 05:27:36;;;;;;;7.83;7.03;;;4.30;42.20;;;;;;10502297;28;20630;-75
2023/01/22 05:32:40;;;;;;;7.30;6.60;;;4.30;42.30;;;;;;10501660;28;20240;-75
2023/01/22 05:37:43;;;;;;;7.23;6.63;;;4.40;42.40;;;;;;10500086;28;20238;-75
2023/01/22 05:42:47;;;;;;;8.00;7.27;;;4.40;42.20;;;;;;10500468;28;20229;-75
2023/01/22 05:47:52;;;;;;;7.30;6.63;;;4.40;42.20;;;;;;10501599;28;20232;-75
2023/01/22 05:52:56;;;;;;;6.47;5.87;;;4.40;42.20;;;;;;10500488;28;20231;-75
2023/01/22 05:58:00;;;;;;;6.83;6.23;;;4.40;42.20;;;;;;10499952;28;20244;-75
2023/01/22 06:03:04;;;;;;;6.67;6.07;;;4.40;42.20;;;;;;10501398;28;20871;-75
2023/01/22 06:08:07;;;;;;;6.30;5.70;;;4.40;42.20;;;;;;10501013;28;20239;-75
2023/01/22 06:13:12;;;;;;;6.53;5.93;;;4.40;42.20;;;;;;10501080;28;20236;-75
2023/01/22 06:18:15;;;;;;;7.07;6.50;;;4.40;42.20;;;;;;10500690;28;20236;-75
2023/01/22 06:23:21;;;;;;;7.00;6.30;;;4.50;42.30;;;;;;10497027;28;20278;-75
2023/01/22 06:28:26;;;;;;;7.37;6.67;;;4.50;42.30;;;;;;10495708;28;20232;-75
2023/01/22 06:33:29;;;;;;;7.40;6.70;;;4.50;42.40;;;;;;10499346;28;20662;-75
2023/01/22 06:38:32;;;;;;;6.87;6.27;;;4.50;42.30;;;;;;10496519;28;20236;-75
2023/01/22 06:43:37;;;;;;;7.60;6.90;;;4.40;42.20;;;;;;10499558;28;20263;-76
2023/01/22 06:48:42;;;;;;;7.53;6.83;;;4.40;42.30;;;;;;10499765;28;20231;-75
2023/01/22 06:53:45;;;;;;;7.33;6.73;;;4.40;42.20;;;;;;10503028;28;20236;-75
2023/01/22 06:58:50;;;;;;;7.83;7.13;;;4.40;42.20;;;;;;10514189;28;20224;-75
2023/01/22 07:03:53;;;;;;;8.40;7.60;;;4.40;42.20;;;;;;10506980;28;20236;-75
2023/01/22 07:08:56;;;;;;;7.97;7.17;;;4.40;42.20;;;;;;10512779;28;20435;-75
2023/01/22 07:14:01;;;;;;;8.73;7.87;;;4.40;42.20;;;;;;10508788;28;20719;-75
2023/01/22 07:19:04;;;;;;;8.43;7.63;;;4.40;42.20;;;;;;10505992;28;20311;-75
2023/01/22 07:24:07;;;;;;;8.63;7.83;;;4.30;42.20;;;;;;10503586;28;20248;-75
2023/01/22 07:29:12;;;;;;;9.07;8.17;;;4.30;42.20;;;;;;10508680;28;20228;-75
2023/01/22 07:34:15;;;;;;;9.97;8.07;;;4.30;42.20;;;;;;10509188;28;20224;-75
2023/01/22 07:39:18;;;;;;;9.30;8.40;;;4.20;42.10;;;;;;10506487;28;20227;-75
2023/01/22 07:44:23;;;;;;;8.93;8.03;;;4.20;42.10;;;;;;10506328;28;20243;-76
2023/01/22 07:49:26;;;;;;;9.53;8.53;;;4.20;42.10;;;;;;10506830;28;20243;-76
2023/01/22 07:54:29;;;;;;;10.03;9.03;;;4.20;42.10;;;;;;10504728;28;20834;-76
2023/01/22 07:59:34;;;;;;;11.50;10.13;;;4.10;42.00;;;;;;10503135;28;20236;-77
2023/01/22 08:04:37;;;;;;;10.47;9.40;;;4.10;42.10;;;;;;10504169;28;20716;-77
2023/01/22 08:09:40;;;;;;;9.10;8.07;;;4.20;42.40;;;;;;10502813;28;20239;-77
2023/01/22 08:14:45;;;;;;;8.07;7.27;;;4.10;42.30;;;;;;10502409;28;20702;-76
2023/01/22 08:19:48;;;;;;;12.23;9.80;;;4.10;42.20;;;;;;10500966;28;20229;-76
2023/01/22 08:24:52;;;;;;;11.70;10.53;;;4.00;42.40;;;;;;10500873;28;20599;-76
2023/01/22 08:29:57;;;;;;;9.90;8.90;;;4.10;43.30;;;;;;10504152;28;20324;-76
2023/01/22 08:35:00;;;;;;;10.10;9.10;;;4.10;42.60;;;;;;10503910;28;20241;-76
2023/01/22 08:40:04;;;;;;;8.90;8.00;;;4.20;42.60;;;;;;10502395;28;20280;-77
2023/01/22 08:45:10;;;;;;;9.27;7.70;;;4.20;42.50;;;;;;10496383;28;20240;-76
2023/01/22 08:50:13;;;;;;;8.77;7.53;;;4.20;42.60;;;;;;10497234;28;20309;-76
2023/01/22 08:55:17;;;;;;;8.23;7.43;;;4.30;42.70;;;;;;10497358;28;20236;-76
2023/01/22 09:00:22;;;;;;;9.87;8.97;;;4.30;42.90;;;;;;10496475;28;20259;-76
2023/01/22 09:05:27;;;;;;;10.40;8.70;;;4.40;42.90;;;;;;10493994;28;20243;-76
2023/01/22 09:10:30;;;;;;;9.37;8.47;;;4.40;42.90;;;;;;10494318;28;20237;-77
2023/01/22 09:15:35;;;;;;;8.93;8.03;;;4.50;42.80;;;;;;10480700;28;20382;-75
2023/01/22 09:20:38;;;;;;;7.93;7.17;;;4.60;42.70;;;;;;10481072;28;20267;-73
2023/01/22 09:25:42;;;;;;;8.30;7.50;;;4.60;42.50;;;;;;10490842;28;21034;-76
2023/01/22 09:30:46;;;;;;;8.53;7.63;;;4.60;42.40;;;;;;10484253;28;20228;-76
2023/01/22 09:35:50;;;;;;;7.93;7.20;;;4.60;42.60;;;;;;10481852;28;20723;-74
2023/01/22 09:40:56;;;;;;;9.13;8.23;;;4.60;42.40;;;;;;10485756;28;20283;-74
2023/01/22 09:46:07;;;;;;;8.53;7.57;;;4.70;42.60;;;;;;10489723;28;20244;-78
2023/01/22 09:51:13;;;;;;;9.43;8.53;;;4.70;42.60;;;;;;10480468;28;20696;-74
2023/01/22 09:56:21;;;;;;;9.83;8.93;;;4.80;42.80;;;;;;10488199;28;20259;-74
2023/01/22 10:01:27;;;;;;;9.83;8.93;;;4.80;42.70;;;;;;10486892;28;20608;-74
2023/01/22 10:06:31;;;;;;;9.00;8.20;;;4.90;42.60;;;;;;10496998;28;20289;-76
2023/01/22 10:11:34;;;;;;;8.57;7.80;;;5.00;42.70;;;;;;10493495;28;20235;-76
2023/01/22 10:16:39;;;;;;;7.67;6.97;;;5.00;42.70;;;;;;10492276;28;20240;-77
2023/01/22 10:21:45;;;;;;;7.30;6.60;;;5.00;42.40;;;;;;10495669;28;20663;-76
2023/01/22 10:26:51;;;;;;;7.40;6.73;;;5.10;42.30;;;;;;10500427;28;20323;-76
2023/01/22 10:32:00;;;;;;;8.30;7.50;;;5.10;42.20;;;;;;10496781;28;20228;-76
2023/01/22 10:37:16;;;;;;;8.17;7.47;;;5.20;42.30;;;;;;10488252;28;20236;-76
2023/01/22 10:42:22;;;;;;;8.87;8.03;;;5.20;42.20;;;;;;10458161;28;20238;-75
2023/01/22 10:47:27;;;;;;;9.37;8.47;;;5.20;42.10;;;;;;10485669;28;20289;-77
2023/01/22 10:52:41;;;;;;;8.10;7.40;;;5.20;42.00;;;;;;10484682;28;20611;-75
2023/01/22 10:57:51;;;;;;;7.80;7.10;;;5.30;42.40;;;;;;10481527;28;20247;-75
2023/01/22 11:02:57;;;;;;;8.13;7.33;;;5.30;42.10;;;;;;10487635;28;20228;-76
2023/01/22 11:08:05;;;;;;;8.60;7.80;;;5.40;41.90;;;;;;10489550;28;20244;-76
2023/01/22 11:13:15;;;;;;;8.40;7.60;;;5.40;41.90;;;;;;10488470;28;20239;-76
2023/01/22 11:18:39;;;;;;;9.00;8.10;;;5.40;41.80;;;;;;10490525;28;20251;-78
2023/01/22 11:23:52;;;;;;;8.47;7.53;;;5.40;42.50;;;;;;10488030;28;20239;-77
2023/01/22 11:29:03;;;;;;;8.43;7.63;;;5.40;41.70;;;;;;10487472;28;20232;-77
2023/01/22 11:34:36;;;;;;;9.13;8.30;;;5.40;41.60;;;;;;10488731;28;20233;-77
2023/01/22 11:40:01;;;;;;;8.50;7.70;;;5.50;41.70;;;;;;10491465;28;20239;-77
2023/01/22 11:45:17;;;;;;;7.73;7.03;;;5.50;41.60;;;;;;10488762;28;20229;-77
2023/01/22 11:50:28;;;;;;;7.77;7.07;;;5.60;41.90;;;;;;10493878;28;20729;-77
2023/01/22 11:55:53;;;;;;;8.63;7.83;;;5.60;41.90;;;;;;10491734;28;20252;-77
2023/01/22 12:01:08;;;;;;;8.60;7.70;;;5.60;42.00;;;;;;10494267;28;20258;-75
2023/01/22 12:06:28;;;;;;;8.40;7.60;;;5.70;42.20;;;;;;10496818;28;20242;-75
2023/01/22 12:11:46;;;;;;;7.97;7.27;;;5.80;41.90;;;;;;10489180;28;20240;-76
2023/01/22 12:16:58;;;;;;;7.83;7.13;;;5.90;41.90;;;;;;10493616;28;20626;-76
2023/01/22 12:22:11;;;;;;;6.67;6.07;;;5.90;41.70;;;;;;10470251;28;20285;-76
2023/01/22 12:27:19;;;;;;;7.73;7.00;;;6.00;41.60;;;;;;10487406;28;20814;-76
2023/01/22 12:32:25;;;;;;;8.03;7.33;;;6.00;42.20;;;;;;10493013;28;20617;-76
2023/01/22 12:37:36;;;;;;;7.63;6.93;;;6.00;41.70;;;;;;10493006;28;20243;-75
2023/01/22 12:42:47;;;;;;;7.47;6.77;;;6.00;41.60;;;;;;10492423;28;20236;-76
2023/01/22 12:47:57;;;;;;;8.60;7.80;;;6.10;41.50;;;;;;10492575;28;20240;-75
2023/01/22 12:53:03;;;;;;;7.60;6.90;;;6.10;41.50;;;;;;10491252;28;20232;-75
2023/01/22 12:58:21;;;;;;;8.20;7.50;;;6.10;41.00;;;;;;10491654;28;20262;-75
2023/01/22 13:03:27;;;;;;;7.67;6.97;;;6.10;40.80;;;;;;10504585;22;20597;-69
2023/01/22 13:08:40;;;;;;;7.00;6.40;;;6.10;41.00;;;;;;10476228;28;20331;-70
2023/01/22 13:13:49;;;;;;;6.53;5.93;;;6.00;40.90;;;;;;10439144;28;20304;-70
2023/01/22 13:18:54;;;;;;;6.83;6.23;;;6.00;41.10;;;;;;10441693;28;20240;-69
2023/01/22 13:24:01;;;;;;;6.50;5.90;;;6.00;41.50;;;;;;10447503;28;20581;-70
2023/01/22 13:29:16;;;;;;;6.80;6.03;;;6.00;41.40;;;;;;10438005;28;20284;-72
2023/01/22 13:34:19;;;;;;;6.07;5.57;;;6.10;41.40;;;;;;10441613;28;20220;-71
2023/01/22 13:39:28;;;;;;;6.23;5.73;;;6.10;41.50;;;;;;10445934;28;20777;-70
2023/01/22 13:44:34;;;;;;;6.93;6.17;;;6.10;41.30;;;;;;10476921;22;20236;-68
2023/01/22 13:49:43;;;;;;;6.00;5.50;;;6.20;43.70;;;;;;10513240;28;20232;-73
2023/01/22 13:54:55;;;;;;;7.00;6.40;;;6.30;42.50;;;;;;10508870;28;20619;-71
2023/01/22 14:00:00;;;;;;;6.57;5.97;;;6.50;41.60;;;;;;10521193;28;20239;-68
2023/01/22 14:05:03;;;;;;;6.83;5.93;;;6.50;41.00;;;;;;10507907;28;20464;-69
2023/01/22 14:10:17;;;;;;;6.77;6.17;;;6.50;41.10;;;;;;10506578;28;20638;-70
2023/01/22 14:15:21;;;;;;;5.70;5.20;;;6.50;40.90;;;;;;10512118;28;20235;-70
2023/01/22 14:20:24;;;;;;;5.80;5.30;;;6.50;41.10;;;;;;10512119;28;20614;-71
2023/01/22 14:25:29;;;;;;;5.70;5.20;;;6.50;41.20;;;;;;10517178;28;20237;-70
2023/01/22 14:30:33;;;;;;;6.30;5.80;;;6.50;41.10;;;;;;10517926;28;20239;-71
2023/01/22 14:35:36;;;;;;;6.23;5.73;;;6.50;41.10;;;;;;10514703;28;20639;-71
2023/01/22 14:40:41;;;;;;;10.47;9.10;;;6.50;40.90;;;;;;10511410;28;20232;-71
2023/01/22 14:45:45;;;;;;;8.77;7.97;;;6.50;40.80;;;;;;10519553;28;20719;-71
2023/01/22 14:50:49;;;;;;;6.67;6.03;;;6.50;40.70;;;;;;10507943;28;20349;-71
2023/01/22 14:55:54;;;;;;;8.10;7.40;;;6.50;40.90;;;;;;10519202;28;20267;-71
2023/01/22 15:00:57;;;;;;;7.83;7.13;;;6.50;40.70;;;;;;10512374;28;20244;-71
2023/01/22 15:06:00;;;;;;;7.43;6.83;;;6.40;40.70;;;;;;10513526;28;20273;-71
2023/01/22 15:11:05;;;;;;;8.20;7.43;;;6.40;40.80;;;;;;10514211;28;20227;-71
2023/01/22 15:16:09;;;;;;;9.33;8.53;;;6.40;40.70;;;;;;10515795;28;20227;-71
2023/01/22 15:21:13;;;;;;;7.70;7.00;;;6.30;40.70;;;;;;10522878;28;20588;-71
2023/01/22 15:26:30;;;;;;;8.23;7.53;;;6.30;40.80;;;;;;10516245;28;20727;-71
2023/01/22 15:31:34;;;;;;;7.30;6.70;;;6.20;40.40;;;;;;10524986;28;20232;-71
2023/01/22 15:36:39;;;;;;;7.53;6.93;;;6.20;40.90;;;;;;10525814;28;20240;-71
2023/01/22 15:41:44;;;;;;;7.67;6.90;;;6.20;40.90;;;;;;10526075;28;20596;-71
2023/01/22 15:46:47;;;;;;;7.20;6.53;;;6.10;41.10;;;;;;10520020;28;20238;-71
2023/01/22 15:51:50;;;;;;;11.00;10.10;;;6.10;41.10;;;;;;10514564;28;20223;-71
2023/01/22 15:56:55;;;;;;;8.07;7.40;;;6.10;41.30;;;;;;10515595;28;20238;-71
2023/01/22 16:01:58;;;;;;;6.33;5.83;;;6.10;41.40;;;;;;10516462;28;20722;-71
2023/01/22 16:07:01;;;;;;;7.40;6.80;;;6.10;41.30;;;;;;10515543;28;20700;-71
2023/01/22 16:12:07;;;;;;;7.87;7.17;;;6.00;41.40;;;;;;10523394;28;20235;-71
2023/01/22 16:17:11;;;;;;;7.67;6.93;;;6.00;41.50;;;;;;10515081;28;20712;-71
2023/01/22 16:22:14;;;;;;;7.70;7.00;;;6.00;41.50;;;;;;10518368;28;20250;-71
2023/01/22 16:27:18;;;;;;;8.33;7.50;;;6.00;41.40;;;;;;10512829;28;20232;-70
2023/01/22 16:32:21;;;;;;;7.77;7.07;;;6.00;41.60;;;;;;10514000;28;20241;-70
2023/01/22 16:37:24;;;;;;;8.70;7.87;;;5.90;41.50;;;;;;10513899;28;20239;-70
2023/01/22 16:42:29;;;;;;;7.43;6.73;;;5.90;41.50;;;;;;10516932;28;20248;-70
2023/01/22 16:47:32;;;;;;;8.53;7.53;;;5.90;41.50;;;;;;10515853;28;20242;-70
2023/01/22 16:52:35;;;;;;;7.33;6.73;;;5.90;41.50;;;;;;10526502;28;20231;-71
2023/01/22 16:57:40;;;;;;;7.83;7.13;;;5.90;41.60;;;;;;10527923;28;20247;-71
2023/01/22 17:02:43;;;;;;;8.10;7.40;;;5.80;41.70;;;;;;10536760;28;20718;-72
2023/01/22 17:07:46;;;;;;;7.47;6.83;;;5.90;41.80;;;;;;10535668;28;20227;-71
2023/01/22 17:12:51;;;;;;;7.63;7.00;;;5.90;41.70;;;;;;10558698;28;20291;-71
2023/01/22 17:17:54;;;;;;;7.97;7.27;;;5.80;41.60;;;;;;10523875;28;20244;-74
2023/01/22 17:22:57;;;;;;;8.10;7.40;;;5.80;41.70;;;;;;10523791;28;20224;-72
2023/01/22 17:28:01;;;;;;;6.77;6.17;;;5.80;41.80;;;;;;10509297;28;20228;-74
2023/01/22 17:33:04;;;;;;;6.73;6.20;;;5.80;41.80;;;;;;10520063;28;20230;-71
2023/01/22 17:38:09;;;;;;;7.17;6.57;;;5.80;41.80;;;;;;10512191;28;20239;-71
2023/01/22 17:43:13;;;;;;;8.03;7.33;;;5.90;41.90;;;;;;10506547;28;21623;-72
2023/01/22 17:48:16;;;;;;;7.27;6.67;;;5.90;41.90;;;;;;10512060;28;20304;-72
2023/01/22 17:53:20;;;;;;;7.87;7.17;;;5.80;41.80;;;;;;10508336;28;20235;-72
2023/01/22 17:58:24;;;;;;;8.07;7.37;;;5.80;41.80;;;;;;10507384;28;20254;-72
2023/01/22 18:03:27;;;;;;;7.73;7.10;;;5.90;41.80;;;;;;10520112;28;20232;-72
2023/01/22 18:08:32;;;;;;;7.43;6.83;;;5.80;41.70;;;;;;10511649;28;20602;-71
2023/01/22 18:13:37;;;;;;;8.00;7.30;;;5.80;41.70;;;;;;10504133;28;20643;-69
2023/01/22 18:18:41;;;;;;;7.87;7.17;;;5.80;41.70;;;;;;10512433;28;20257;-69
2023/01/22 18:23:45;;;;;;;7.93;7.17;;;5.70;41.50;;;;;;10510991;28;20583;-69
2023/01/22 18:28:50;;;;;;;8.10;7.23;;;5.70;41.70;;;;;;10515500;28;20232;-69
2023/01/22 18:33:55;;;;;;;8.07;7.33;;;5.70;42.40;;;;;;10507318;28;20243;-72
2023/01/22 18:38:59;;;;;;;8.63;7.80;;;5.70;41.70;;;;;;10508553;28;20238;-71
2023/01/22 18:44:04;;;;;;;10.30;9.40;;;5.70;41.80;;;;;;10507846;28;20712;-71
2023/01/22 18:49:11;;;;;;;8.70;7.90;;;5.60;41.70;;;;;;10510030;28;20548;-71
2023/01/22 18:54:15;;;;;;;8.60;7.80;;;5.60;41.80;;;;;;10503449;28;20235;-70
2023/01/22 18:59:20;;;;;;;7.33;6.73;;;5.60;41.70;;;;;;10520786;28;20234;-70
2023/01/22 19:04:24;;;;;;;7.60;6.90;;;5.60;41.70;;;;;;10510072;28;20811;-70
2023/01/22 19:09:27;;;;;;;7.50;6.80;;;5.60;41.70;;;;;;10504987;28;20322;-70
2023/01/22 19:14:32;;;;;;;6.80;6.20;;;5.60;41.60;;;;;;10507942;28;20404;-70
2023/01/22 19:19:35;;;;;;;6.53;6.03;;;5.60;41.50;;;;;;10506602;28;20235;-70
2023/01/22 19:24:38;;;;;;;6.10;5.60;;;5.60;41.50;;;;;;10517961;28;20235;-70
2023/01/22 19:29:44;;;;;;;6.67;6.07;;;5.50;41.50;;;;;;10516977;28;20763;-70
2023/01/22 19:34:47;;;;;;;7.67;6.97;;;5.50;41.40;;;;;;10514771;28;20239;-70
2023/01/22 19:39:51;;;;;;;8.33;7.43;;;5.50;41.30;;;;;;10510131;28;20224;-70
2023/01/22 19:44:55;;;;;;;14.90;11.47;;;5.40;41.30;;;;;;10517008;28;20239;-70
2023/01/22 19:49:58;;;;;;;10.27;8.43;;;5.40;41.20;;;;;;10511121;28;20231;-70
2023/01/22 19:55:01;;;;;;;7.83;7.03;;;5.30;41.10;;;;;;10509467;28;20707;-70
2023/01/22 20:00:08;;;;;;;7.67;6.97;;;5.30;41.20;;;;;;10516061;28;21035;-70
2023/01/22 20:05:11;;;;;;;7.70;7.00;;;5.20;41.60;;;;;;10516194;28;20239;-69
2023/01/22 20:10:14;;;;;;;6.87;6.27;;;5.20;41.20;;;;;;10520759;28;20223;-69
2023/01/22 20:15:19;;;;;;;8.53;7.83;;;5.10;41.20;;;;;;10523582;28;20233;-70
2023/01/22 20:20:22;;;;;;;8.37;7.67;;;5.00;41.40;;;;;;10519956;28;20729;-70
2023/01/22 20:25:26;;;;;;;10.60;9.60;;;5.00;41.40;;;;;;10520633;28;20664;-70
2023/01/22 20:30:31;;;;;;;9.47;8.57;;;5.00;41.60;;;;;;10521474;28;20227;-70
2023/01/22 20:35:34;;;;;;;9.80;8.90;;;4.90;41.70;;;;;;10525494;28;20240;-71
2023/01/22 20:40:40;;;;;;;9.63;8.73;;;4.90;41.60;;;;;;10515837;28;20247;-70
2023/01/22 20:45:56;;;;;;;9.47;8.57;;;4.90;41.70;;;;;;10521765;28;20595;-71
2023/01/22 20:50:59;;;;;;;8.17;7.43;;;4.90;41.70;;;;;;10522393;28;20225;-70
2023/01/22 20:56:04;;;;;;;9.03;8.13;;;4.90;41.90;;;;;;10519048;28;20763;-70
2023/01/22 21:01:13;;;;;;;9.57;8.67;;;4.90;42.00;;;;;;10526459;28;20603;-71
2023/01/22 21:06:18;;;;;;;10.20;9.20;;;4.90;42.00;;;;;;10515004;28;20234;-70
2023/01/22 21:11:22;;;;;;;9.10;8.27;;;4.90;41.90;;;;;;10515235;28;20235;-70
2023/01/22 21:16:29;;;;;;;9.67;8.77;;;4.80;41.90;;;;;;10513501;28;20615;-70
2023/01/22 21:21:33;;;;;;;12.83;11.53;;;4.80;42.10;;;;;;10510273;28;20286;-68
2023/01/22 21:26:37;;;;;;;11.20;9.93;;;4.90;42.30;;;;;;10517242;28;20231;-68
2023/01/22 21:31:42;;;;;;;11.97;10.77;;;4.90;42.20;;;;;;10515816;28;20254;-69
2023/01/22 21:36:48;;;;;;;11.20;10.10;;;4.90;42.20;;;;;;10519377;28;20719;-70
2023/01/22 21:46:20;;;;;;;11.20;10.10;;;5.00;42.10;;;;;;10518296;28;20236;-68
2023/01/22 21:47:16;;;;;;;9.87;9.03;;;5.00;42.00;;;;;;10512344;28;20270;-68
2023/01/22 21:52:22;;;;;;;10.20;9.20;;;5.00;42.00;;;;;;10510495;28;20309;-68
2023/01/22 21:57:25;;;;;;;10.80;9.80;;;5.00;42.00;;;;;;10516210;28;20546;-69
2023/01/22 22:02:30;;;;;;;11.53;10.43;;;5.00;42.00;;;;;;10507069;28;20240;-69
2023/01/22 22:07:33;;;;;;;11.23;10.13;;;5.00;42.20;;;;;;10513554;28;20288;-68
2023/01/22 22:12:36;;;;;;;11.00;9.90;;;5.00;42.20;;;;;;10509438;28;20227;-68
2023/01/22 22:17:40;;;;;;;8.93;8.13;;;5.00;42.00;;;;;;10507717;28;20234;-69
2023/01/22 22:22:44;;;;;;;9.73;8.87;;;5.00;42.20;;;;;;10506155;28;20227;-69
2023/01/22 22:27:47;;;;;;;9.07;8.27;;;5.00;42.20;;;;;;10505678;28;20234;-71
2023/01/22 22:32:53;;;;;;;8.27;7.57;;;5.00;42.20;;;;;;10509629;28;20269;-70
2023/01/22 22:37:56;;;;;;;8.83;8.03;;;5.10;42.30;;;;;;10510765;28;20232;-70
2023/01/22 22:42:59;;;;;;;7.73;7.03;;;5.10;42.20;;;;;;10511450;28;20226;-71
2023/01/22 22:48:04;;;;;;;8.57;7.87;;;5.10;42.00;;;;;;10504365;28;20228;-71
2023/01/22 22:53:07;;;;;;;8.40;7.60;;;5.10;42.00;;;;;;10508460;28;20255;-71
2023/01/22 22:58:12;;;;;;;8.17;7.47;;;5.10;41.90;;;;;;10511574;28;20578;-71
2023/01/22 23:03:16;;;;;;;8.30;7.60;;;5.10;41.90;;;;;;10507910;28;20227;-72
2023/01/22 23:08:19;;;;;;;8.50;7.70;;;5.00;41.90;;;;;;10506280;28;20223;-71
2023/01/22 23:13:23;;;;;;;7.97;7.27;;;5.00;41.90;;;;;;10502962;28;20281;-71
2023/01/22 23:18:27;;;;;;;9.07;8.13;;;5.00;41.90;;;;;;10507512;28;20712;-72
2023/01/22 23:23:30;;;;;;;8.73;7.93;;;5.00;42.10;;;;;;10512594;28;20231;-71
2023/01/22 23:28:33;;;;;;;8.17;7.40;;;5.00;42.10;;;;;;10511505;28;20248;-71
2023/01/22 23:33:38;;;;;;;9.07;8.27;;;5.00;42.10;;;;;;10512209;28;20730;-71
2023/01/22 23:38:42;;;;;;;8.87;8.07;;;5.00;42.20;;;;;;10512275;28;20236;-72
2023/01/22 23:43:46;;;;;;;9.07;8.17;;;5.00;42.20;;;;;;10520754;28;20243;-72
2023/01/22 23:48:51;;;;;;;8.60;7.80;;;5.00;42.00;;;;;;10520642;28;20234;-71
2023/01/22 23:53:54;;;;;;;8.70;7.90;;;5.00;42.00;;;;;;10523032;28;20232;-72
2023/01/22 23:58:58;;;;;;;8.07;7.37;;;5.00;42.00;;;;;;10517064;28;20551;-72
